sensor_id;sensor_type;location;lat;lon;timestamp;P1;durP1;ratioP1;P2;durP2;ratioP2
4694;SDS011;2361;49.540;8.390;2022-09-29T00:02:01;2.53;;;1.97;;
4694;SDS011;2361;49.540;8.390;2022-09-29T00:04:27;3.87;;;2.20;;
4694;SDS011;2361;49.540;8.390;2022-09-29T00:06:54;1.57;;;1.47;;
4694;SDS011;2361;49.540;8.390;2022-09-29T00:09:21;3.07;;;2.40;;
4694;SDS011;2361;49.540;8.390;2022-09-29T00:11:47;1.57;;;1.50;;
4694;SDS011;2361;49.540;8.390;2022-09-29T00:14:14;2.20;;;1.90;;
4694;SDS011;2361;49.540;8.390;2022-09-29T00:16:41;1.47;;;1.37;;
4694;SDS011;2361;49.540;8.390;2022-09-29T00:19:07;1.47;;;1.37;;
4694;SDS011;2361;49.540;8.390;2022-09-29T00:21:34;1.90;;;1.70;;
4694;SDS011;2361;49.540;8.390;2022-09-29T00:24:01;2.93;;;2.03;;
4694;SDS011;2361;49.540;8.390;2022-09-29T00:26:27;2.27;;;2.13;;
4694;SDS011;2361;49.540;8.390;2022-09-29T00:28:55;1.90;;;1.80;;
4694;SDS011;2361;49.540;8.390;2022-09-29T00:31:24;2.37;;;1.50;;
4694;SDS011;2361;49.540;8.390;2022-09-29T00:33:52;3.57;;;2.10;;
4694;SDS011;2361;49.540;8.390;2022-09-29T00:36:19;1.83;;;1.50;;
4694;SDS011;2361;49.540;8.390;2022-09-29T00:38:47;4.17;;;2.80;;
4694;SDS011;2361;49.540;8.390;2022-09-29T00:41:17;2.40;;;1.77;;
4694;SDS011;2361;49.540;8.390;2022-09-29T00:49:13;1.97;;;1.60;;
4694;SDS011;2361;49.540;8.390;2022-09-29T00:55:20;2.90;;;1.80;;
4694;SDS011;2361;49.540;8.390;2022-09-29T00:57:57;2.50;;;2.00;;
4694;SDS011;2361;49.540;8.390;2022-09-29T01:00:43;3.53;;;2.20;;
4694;SDS011;2361;49.540;8.390;2022-09-29T01:03:12;8.40;;;2.53;;
4694;SDS011;2361;49.540;8.390;2022-09-29T01:05:43;2.23;;;2.03;;
4694;SDS011;2361;49.540;8.390;2022-09-29T01:08:24;4.07;;;2.93;;
4694;SDS011;2361;49.540;8.390;2022-09-29T01:10:59;2.70;;;2.50;;
4694;SDS011;2361;49.540;8.390;2022-09-29T01:13:27;7.50;;;3.10;;
4694;SDS011;2361;49.540;8.390;2022-09-29T01:15:55;2.53;;;2.23;;
4694;SDS011;2361;49.540;8.390;2022-09-29T01:18:21;2.20;;;1.93;;
4694;SDS011;2361;49.540;8.390;2022-09-29T01:21:11;6.97;;;2.40;;
4694;SDS011;2361;49.540;8.390;2022-09-29T01:34:43;0.40;;;0.40;;
4694;SDS011;2361;49.540;8.390;2022-09-29T01:37:15;3.30;;;1.73;;
4694;SDS011;2361;49.540;8.390;2022-09-29T01:40:08;3.47;;;2.53;;
4694;SDS011;2361;49.540;8.390;2022-09-29T01:42:43;2.83;;;1.70;;
4694;SDS011;2361;49.540;8.390;2022-09-29T01:45:13;5.00;;;2.83;;
4694;SDS011;2361;49.540;8.390;2022-09-29T01:47:52;9.47;;;4.47;;
4694;SDS011;2361;49.540;8.390;2022-09-29T01:50:28;6.70;;;4.40;;
4694;SDS011;2361;49.540;8.390;2022-09-29T01:53:02;2.27;;;1.80;;
4694;SDS011;2361;49.540;8.390;2022-09-29T01:55:32;2.17;;;1.97;;
4694;SDS011;2361;49.540;8.390;2022-09-29T01:58:06;3.90;;;1.87;;
4694;SDS011;2361;49.540;8.390;2022-09-29T02:00:39;2.40;;;1.50;;
4694;SDS011;2361;49.540;8.390;2022-09-29T02:05:50;2.83;;;2.50;;
4694;SDS011;2361;49.540;8.390;2022-09-29T02:11:17;2.90;;;2.00;;
4694;SDS011;2361;49.540;8.390;2022-09-29T02:13:55;2.57;;;1.97;;
4694;SDS011;2361;49.540;8.390;2022-09-29T02:16:41;3.33;;;1.97;;
4694;SDS011;2361;49.540;8.390;2022-09-29T02:19:20;3.47;;;2.10;;
4694;SDS011;2361;49.540;8.390;2022-09-29T02:21:51;2.90;;;2.30;;
4694;SDS011;2361;49.540;8.390;2022-09-29T02:24:20;5.30;;;2.73;;
4694;SDS011;2361;49.540;8.390;2022-09-29T02:26:48;5.80;;;1.70;;
4694;SDS011;2361;49.540;8.390;2022-09-29T02:29:16;3.17;;;2.30;;
4694;SDS011;2361;49.540;8.390;2022-09-29T02:31:44;5.37;;;3.20;;
4694;SDS011;2361;49.540;8.390;2022-09-29T02:34:14;2.57;;;1.53;;
4694;SDS011;2361;49.540;8.390;2022-09-29T02:42:06;6.93;;;3.03;;
4694;SDS011;2361;49.540;8.390;2022-09-29T02:58:34;6.40;;;3.37;;
4694;SDS011;2361;49.540;8.390;2022-09-29T03:01:13;8.37;;;3.53;;
4694;SDS011;2361;49.540;8.390;2022-09-29T03:03:41;5.27;;;3.07;;
4694;SDS011;2361;49.540;8.390;2022-09-29T03:06:09;6.07;;;3.47;;
4694;SDS011;2361;49.540;8.390;2022-09-29T03:08:36;7.70;;;4.37;;
4694;SDS011;2361;49.540;8.390;2022-09-29T03:11:03;8.80;;;4.07;;
4694;SDS011;2361;49.540;8.390;2022-09-29T03:13:30;6.30;;;3.37;;
4694;SDS011;2361;49.540;8.390;2022-09-29T03:15:56;4.50;;;3.10;;
4694;SDS011;2361;49.540;8.390;2022-09-29T03:18:23;9.57;;;4.80;;
4694;SDS011;2361;49.540;8.390;2022-09-29T03:20:52;9.97;;;3.93;;
4694;SDS011;2361;49.540;8.390;2022-09-29T03:23:20;6.00;;;2.73;;
4694;SDS011;2361;49.540;8.390;2022-09-29T03:25:46;4.93;;;3.50;;
4694;SDS011;2361;49.540;8.390;2022-09-29T03:28:13;6.80;;;3.87;;
4694;SDS011;2361;49.540;8.390;2022-09-29T03:30:41;8.63;;;4.00;;
4694;SDS011;2361;49.540;8.390;2022-09-29T03:33:08;7.67;;;4.23;;
4694;SDS011;2361;49.540;8.390;2022-09-29T03:35:35;6.47;;;3.97;;
4694;SDS011;2361;49.540;8.390;2022-09-29T03:38:01;8.50;;;4.03;;
4694;SDS011;2361;49.540;8.390;2022-09-29T03:40:28;3.23;;;2.93;;
4694;SDS011;2361;49.540;8.390;2022-09-29T03:42:55;4.80;;;3.07;;
4694;SDS011;2361;49.540;8.390;2022-09-29T03:45:22;6.27;;;3.77;;
4694;SDS011;2361;49.540;8.390;2022-09-29T03:47:48;6.40;;;3.70;;
4694;SDS011;2361;49.540;8.390;2022-09-29T03:50:15;4.67;;;3.17;;
4694;SDS011;2361;49.540;8.390;2022-09-29T03:52:42;9.37;;;4.87;;
4694;SDS011;2361;49.540;8.390;2022-09-29T03:55:08;7.43;;;4.40;;
4694;SDS011;2361;49.540;8.390;2022-09-29T03:57:35;7.40;;;3.23;;
4694;SDS011;2361;49.540;8.390;2022-09-29T04:00:02;6.73;;;3.40;;
4694;SDS011;2361;49.540;8.390;2022-09-29T04:02:29;7.80;;;4.30;;
4694;SDS011;2361;49.540;8.390;2022-09-29T04:04:55;8.87;;;4.53;;
4694;SDS011;2361;49.540;8.390;2022-09-29T04:07:22;10.47;;;4.33;;
4694;SDS011;2361;49.540;8.390;2022-09-29T04:09:49;7.70;;;3.90;;
4694;SDS011;2361;49.540;8.390;2022-09-29T04:12:15;8.63;;;4.40;;
4694;SDS011;2361;49.540;8.390;2022-09-29T04:14:42;10.00;;;5.30;;
4694;SDS011;2361;49.540;8.390;2022-09-29T04:17:09;6.77;;;4.67;;
4694;SDS011;2361;49.540;8.390;2022-09-29T04:19:35;6.90;;;4.50;;
4694;SDS011;2361;49.540;8.390;2022-09-29T04:22:02;8.03;;;4.90;;
4694;SDS011;2361;49.540;8.390;2022-09-29T04:24:28;9.17;;;5.07;;
4694;SDS011;2361;49.540;8.390;2022-09-29T04:26:55;7.57;;;4.53;;
4694;SDS011;2361;49.540;8.390;2022-09-29T04:29:22;10.80;;;4.73;;
4694;SDS011;2361;49.540;8.390;2022-09-29T04:31:49;10.70;;;5.20;;
4694;SDS011;2361;49.540;8.390;2022-09-29T04:34:16;9.80;;;5.97;;
4694;SDS011;2361;49.540;8.390;2022-09-29T04:36:44;11.60;;;4.47;;
4694;SDS011;2361;49.540;8.390;2022-09-29T04:39:11;11.43;;;5.93;;
4694;SDS011;2361;49.540;8.390;2022-09-29T04:41:38;11.50;;;6.40;;
4694;SDS011;2361;49.540;8.390;2022-09-29T04:44:06;9.57;;;5.57;;
4694;SDS011;2361;49.540;8.390;2022-09-29T04:46:33;10.93;;;6.00;;
4694;SDS011;2361;49.540;8.390;2022-09-29T04:49:00;9.47;;;4.90;;
4694;SDS011;2361;49.540;8.390;2022-09-29T04:51:27;9.83;;;4.50;;
4694;SDS011;2361;49.540;8.390;2022-09-29T04:53:54;7.17;;;5.00;;
4694;SDS011;2361;49.540;8.390;2022-09-29T04:56:23;9.57;;;5.00;;
4694;SDS011;2361;49.540;8.390;2022-09-29T04:58:50;9.90;;;4.53;;
4694;SDS011;2361;49.540;8.390;2022-09-29T05:01:17;11.20;;;5.33;;
4694;SDS011;2361;49.540;8.390;2022-09-29T05:03:44;10.60;;;5.27;;
4694;SDS011;2361;49.540;8.390;2022-09-29T05:06:10;8.30;;;5.30;;
4694;SDS011;2361;49.540;8.390;2022-09-29T05:08:38;9.00;;;5.03;;
4694;SDS011;2361;49.540;8.390;2022-09-29T05:11:05;6.10;;;3.63;;
4694;SDS011;2361;49.540;8.390;2022-09-29T05:13:34;9.00;;;3.70;;
4694;SDS011;2361;49.540;8.390;2022-09-29T05:16:01;6.47;;;3.37;;
4694;SDS011;2361;49.540;8.390;2022-09-29T05:18:29;5.70;;;3.30;;
4694;SDS011;2361;49.540;8.390;2022-09-29T05:21:06;6.40;;;3.90;;
4694;SDS011;2361;49.540;8.390;2022-09-29T05:23:53;5.00;;;3.00;;
4694;SDS011;2361;49.540;8.390;2022-09-29T05:26:20;11.43;;;5.23;;
4694;SDS011;2361;49.540;8.390;2022-09-29T05:28:47;10.17;;;3.67;;
4694;SDS011;2361;49.540;8.390;2022-09-29T05:31:14;9.80;;;4.27;;
4694;SDS011;2361;49.540;8.390;2022-09-29T05:33:41;9.23;;;3.77;;
4694;SDS011;2361;49.540;8.390;2022-09-29T05:36:09;12.10;;;4.60;;
4694;SDS011;2361;49.540;8.390;2022-09-29T05:38:38;10.70;;;4.50;;
4694;SDS011;2361;49.540;8.390;2022-09-29T05:41:06;10.67;;;4.83;;
4694;SDS011;2361;49.540;8.390;2022-09-29T05:43:36;7.97;;;3.90;;
4694;SDS011;2361;49.540;8.390;2022-09-29T05:46:05;11.60;;;4.20;;
4694;SDS011;2361;49.540;8.390;2022-09-29T05:48:35;9.20;;;4.63;;
4694;SDS011;2361;49.540;8.390;2022-09-29T05:51:06;12.20;;;4.87;;
4694;SDS011;2361;49.540;8.390;2022-09-29T05:53:36;11.60;;;5.60;;
4694;SDS011;2361;49.540;8.390;2022-09-29T05:56:07;11.90;;;5.37;;
4694;SDS011;2361;49.540;8.390;2022-09-29T05:58:37;16.40;;;5.57;;
4694;SDS011;2361;49.540;8.390;2022-09-29T06:01:06;12.07;;;5.60;;
4694;SDS011;2361;49.540;8.390;2022-09-29T06:03:34;8.40;;;4.20;;
4694;SDS011;2361;49.540;8.390;2022-09-29T06:08:38;5.60;;;3.07;;
4694;SDS011;2361;49.540;8.390;2022-09-29T06:11:09;7.40;;;3.17;;
4694;SDS011;2361;49.540;8.390;2022-09-29T06:13:45;4.67;;;3.07;;
4694;SDS011;2361;49.540;8.390;2022-09-29T06:16:15;8.03;;;3.53;;
4694;SDS011;2361;49.540;8.390;2022-09-29T06:18:45;9.63;;;4.77;;
4694;SDS011;2361;49.540;8.390;2022-09-29T06:21:14;6.77;;;3.30;;
4694;SDS011;2361;49.540;8.390;2022-09-29T06:23:44;8.10;;;3.87;;
4694;SDS011;2361;49.540;8.390;2022-09-29T06:26:12;9.30;;;4.40;;
4694;SDS011;2361;49.540;8.390;2022-09-29T06:28:44;9.07;;;4.87;;
4694;SDS011;2361;49.540;8.390;2022-09-29T06:31:12;11.90;;;4.87;;
4694;SDS011;2361;49.540;8.390;2022-09-29T06:33:42;6.80;;;3.37;;
4694;SDS011;2361;49.540;8.390;2022-09-29T06:39:05;10.80;;;4.40;;
4694;SDS011;2361;49.540;8.390;2022-09-29T06:41:36;6.90;;;3.43;;
4694;SDS011;2361;49.540;8.390;2022-09-29T06:44:03;7.60;;;4.20;;
4694;SDS011;2361;49.540;8.390;2022-09-29T06:46:30;6.13;;;3.40;;
4694;SDS011;2361;49.540;8.390;2022-09-29T06:48:57;9.73;;;4.47;;
4694;SDS011;2361;49.540;8.390;2022-09-29T06:51:24;7.67;;;4.47;;
4694;SDS011;2361;49.540;8.390;2022-09-29T06:54:03;9.20;;;4.83;;
4694;SDS011;2361;49.540;8.390;2022-09-29T06:56:37;14.60;;;7.30;;
4694;SDS011;2361;49.540;8.390;2022-09-29T06:59:03;12.97;;;7.27;;
4694;SDS011;2361;49.540;8.390;2022-09-29T07:01:31;10.37;;;5.17;;
4694;SDS011;2361;49.540;8.390;2022-09-29T07:03:58;12.37;;;5.47;;
4694;SDS011;2361;49.540;8.390;2022-09-29T07:06:28;10.70;;;4.60;;
4694;SDS011;2361;49.540;8.390;2022-09-29T07:08:56;11.50;;;5.60;;
4694;SDS011;2361;49.540;8.390;2022-09-29T07:11:24;14.37;;;6.30;;
4694;SDS011;2361;49.540;8.390;2022-09-29T07:13:53;12.93;;;6.30;;
4694;SDS011;2361;49.540;8.390;2022-09-29T07:16:20;8.57;;;4.70;;
4694;SDS011;2361;49.540;8.390;2022-09-29T07:18:51;12.10;;;5.53;;
4694;SDS011;2361;49.540;8.390;2022-09-29T07:21:19;13.60;;;6.27;;
4694;SDS011;2361;49.540;8.390;2022-09-29T07:23:47;13.20;;;6.63;;
4694;SDS011;2361;49.540;8.390;2022-09-29T07:26:14;12.80;;;6.70;;
4694;SDS011;2361;49.540;8.390;2022-09-29T07:28:43;13.47;;;6.27;;
4694;SDS011;2361;49.540;8.390;2022-09-29T07:31:11;24.10;;;7.07;;
4694;SDS011;2361;49.540;8.390;2022-09-29T07:33:42;14.27;;;6.87;;
4694;SDS011;2361;49.540;8.390;2022-09-29T07:36:10;14.37;;;6.40;;
4694;SDS011;2361;49.540;8.390;2022-09-29T07:38:38;21.07;;;10.00;;
4694;SDS011;2361;49.540;8.390;2022-09-29T07:41:06;14.20;;;7.60;;
4694;SDS011;2361;49.540;8.390;2022-09-29T07:43:37;17.53;;;8.50;;
4694;SDS011;2361;49.540;8.390;2022-09-29T07:46:05;20.80;;;9.40;;
4694;SDS011;2361;49.540;8.390;2022-09-29T07:48:33;21.17;;;10.47;;
4694;SDS011;2361;49.540;8.390;2022-09-29T07:53:33;17.83;;;8.60;;
4694;SDS011;2361;49.540;8.390;2022-09-29T07:56:05;18.57;;;9.60;;
4694;SDS011;2361;49.540;8.390;2022-09-29T07:58:44;11.17;;;6.10;;
4694;SDS011;2361;49.540;8.390;2022-09-29T08:01:12;16.10;;;6.90;;
4694;SDS011;2361;49.540;8.390;2022-09-29T08:03:47;15.00;;;8.17;;
4694;SDS011;2361;49.540;8.390;2022-09-29T08:06:17;17.87;;;8.60;;
4694;SDS011;2361;49.540;8.390;2022-09-29T08:08:45;15.57;;;7.50;;
4694;SDS011;2361;49.540;8.390;2022-09-29T08:11:27;13.43;;;7.90;;
4694;SDS011;2361;49.540;8.390;2022-09-29T08:13:57;13.70;;;6.60;;
4694;SDS011;2361;49.540;8.390;2022-09-29T08:16:24;13.60;;;5.60;;
4694;SDS011;2361;49.540;8.390;2022-09-29T08:18:52;12.50;;;7.20;;
4694;SDS011;2361;49.540;8.390;2022-09-29T08:21:19;18.73;;;9.17;;
4694;SDS011;2361;49.540;8.390;2022-09-29T08:23:46;17.60;;;8.70;;
4694;SDS011;2361;49.540;8.390;2022-09-29T08:26:14;21.50;;;7.30;;
4694;SDS011;2361;49.540;8.390;2022-09-29T08:28:48;17.40;;;7.77;;
4694;SDS011;2361;49.540;8.390;2022-09-29T08:31:29;21.57;;;9.60;;
4694;SDS011;2361;49.540;8.390;2022-09-29T08:33:57;17.63;;;8.67;;
4694;SDS011;2361;49.540;8.390;2022-09-29T08:36:24;33.20;;;10.90;;
4694;SDS011;2361;49.540;8.390;2022-09-29T08:38:52;14.10;;;7.43;;
4694;SDS011;2361;49.540;8.390;2022-09-29T08:47:07;30.57;;;11.87;;
4694;SDS011;2361;49.540;8.390;2022-09-29T08:50:27;22.70;;;9.93;;
4694;SDS011;2361;49.540;8.390;2022-09-29T08:53:08;20.37;;;9.17;;
4694;SDS011;2361;49.540;8.390;2022-09-29T08:58:31;14.43;;;7.47;;
4694;SDS011;2361;49.540;8.390;2022-09-29T09:04:08;22.70;;;11.50;;
4694;SDS011;2361;49.540;8.390;2022-09-29T09:19:23;24.57;;;8.77;;
4694;SDS011;2361;49.540;8.390;2022-09-29T09:22:13;17.20;;;7.70;;
4694;SDS011;2361;49.540;8.390;2022-09-29T09:27:30;18.47;;;8.03;;
4694;SDS011;2361;49.540;8.390;2022-09-29T09:30:04;23.20;;;10.37;;
4694;SDS011;2361;49.540;8.390;2022-09-29T09:32:40;19.20;;;10.60;;
4694;SDS011;2361;49.540;8.390;2022-09-29T09:38:03;23.93;;;10.50;;
4694;SDS011;2361;49.540;8.390;2022-09-29T09:40:45;21.20;;;10.70;;
4694;SDS011;2361;49.540;8.390;2022-09-29T09:46:13;18.17;;;8.03;;
4694;SDS011;2361;49.540;8.390;2022-09-29T09:48:54;17.27;;;8.43;;
4694;SDS011;2361;49.540;8.390;2022-09-29T09:54:54;16.60;;;8.80;;
4694;SDS011;2361;49.540;8.390;2022-09-29T10:00:25;16.20;;;7.87;;
4694;SDS011;2361;49.540;8.390;2022-09-29T10:03:03;16.17;;;8.80;;
4694;SDS011;2361;49.540;8.390;2022-09-29T10:05:37;13.50;;;7.40;;
4694;SDS011;2361;49.540;8.390;2022-09-29T10:10:56;18.30;;;10.17;;
4694;SDS011;2361;49.540;8.390;2022-09-29T10:13:28;23.87;;;11.93;;
4694;SDS011;2361;49.540;8.390;2022-09-29T10:15:57;17.10;;;8.77;;
4694;SDS011;2361;49.540;8.390;2022-09-29T10:18:47;15.33;;;8.40;;
4694;SDS011;2361;49.540;8.390;2022-09-29T10:21:22;14.40;;;7.87;;
4694;SDS011;2361;49.540;8.390;2022-09-29T10:24:23;17.60;;;8.50;;
4694;SDS011;2361;49.540;8.390;2022-09-29T10:26:55;13.50;;;6.60;;
4694;SDS011;2361;49.540;8.390;2022-09-29T10:29:44;14.10;;;8.57;;
4694;SDS011;2361;49.540;8.390;2022-09-29T10:35:07;13.17;;;8.17;;
4694;SDS011;2361;49.540;8.390;2022-09-29T10:38:01;14.47;;;8.13;;
4694;SDS011;2361;49.540;8.390;2022-09-29T10:40:32;14.90;;;8.70;;
4694;SDS011;2361;49.540;8.390;2022-09-29T10:45:50;18.07;;;10.27;;
4694;SDS011;2361;49.540;8.390;2022-09-29T10:48:23;19.03;;;10.47;;
4694;SDS011;2361;49.540;8.390;2022-09-29T10:50:53;14.17;;;10.00;;
4694;SDS011;2361;49.540;8.390;2022-09-29T10:58:54;15.63;;;8.90;;
4694;SDS011;2361;49.540;8.390;2022-09-29T11:01:30;14.50;;;8.90;;
4694;SDS011;2361;49.540;8.390;2022-09-29T11:04:12;14.30;;;8.40;;
4694;SDS011;2361;49.540;8.390;2022-09-29T11:07:10;15.73;;;10.40;;
4694;SDS011;2361;49.540;8.390;2022-09-29T11:09:42;17.90;;;10.50;;
4694;SDS011;2361;49.540;8.390;2022-09-29T11:15:00;20.07;;;11.20;;
4694;SDS011;2361;49.540;8.390;2022-09-29T11:17:36;15.93;;;8.77;;
4694;SDS011;2361;49.540;8.390;2022-09-29T11:20:05;19.57;;;10.40;;
4694;SDS011;2361;49.540;8.390;2022-09-29T11:22:48;19.17;;;12.00;;
4694;SDS011;2361;49.540;8.390;2022-09-29T11:25:45;19.57;;;11.63;;
4694;SDS011;2361;49.540;8.390;2022-09-29T11:31:49;21.97;;;10.93;;
4694;SDS011;2361;49.540;8.390;2022-09-29T11:44:09;18.77;;;9.93;;
4694;SDS011;2361;49.540;8.390;2022-09-29T11:55:46;14.83;;;7.80;;
4694;SDS011;2361;49.540;8.390;2022-09-29T11:58:52;17.30;;;7.80;;
4694;SDS011;2361;49.540;8.390;2022-09-29T12:08:07;3.50;;;3.03;;
4694;SDS011;2361;49.540;8.390;2022-09-29T12:17:11;6.60;;;3.40;;
4694;SDS011;2361;49.540;8.390;2022-09-29T12:19:44;5.20;;;3.10;;
4694;SDS011;2361;49.540;8.390;2022-09-29T12:22:14;5.37;;;3.20;;
4694;SDS011;2361;49.540;8.390;2022-09-29T12:24:50;3.80;;;3.40;;
4694;SDS011;2361;49.540;8.390;2022-09-29T12:27:28;3.57;;;3.13;;
4694;SDS011;2361;49.540;8.390;2022-09-29T12:33:06;5.30;;;2.93;;
4694;SDS011;2361;49.540;8.390;2022-09-29T12:35:51;1.73;;;1.50;;
4694;SDS011;2361;49.540;8.390;2022-09-29T12:38:54;3.67;;;2.90;;
4694;SDS011;2361;49.540;8.390;2022-09-29T12:41:30;3.47;;;3.17;;
4694;SDS011;2361;49.540;8.390;2022-09-29T12:44:06;3.63;;;2.80;;
4694;SDS011;2361;49.540;8.390;2022-09-29T12:46:51;5.47;;;2.97;;
4694;SDS011;2361;49.540;8.390;2022-09-29T12:49:28;3.60;;;2.90;;
4694;SDS011;2361;49.540;8.390;2022-09-29T12:52:30;3.07;;;2.77;;
4694;SDS011;2361;49.540;8.390;2022-09-29T12:55:25;2.97;;;2.70;;
4694;SDS011;2361;49.540;8.390;2022-09-29T12:58:05;4.23;;;3.77;;
4694;SDS011;2361;49.540;8.390;2022-09-29T13:04:09;8.47;;;4.10;;
4694;SDS011;2361;49.540;8.390;2022-09-29T13:09:56;4.50;;;3.60;;
4694;SDS011;2361;49.540;8.390;2022-09-29T13:30:11;7.30;;;3.97;;
4694;SDS011;2361;49.540;8.390;2022-09-29T13:35:36;6.03;;;2.90;;
4694;SDS011;2361;49.540;8.390;2022-09-29T13:38:13;2.17;;;2.00;;
4694;SDS011;2361;49.540;8.390;2022-09-29T13:41:52;3.03;;;2.67;;
4694;SDS011;2361;49.540;8.390;2022-09-29T13:51:58;3.73;;;2.50;;
4694;SDS011;2361;49.540;8.390;2022-09-29T13:54:40;2.30;;;2.07;;
4694;SDS011;2361;49.540;8.390;2022-09-29T13:59:45;6.70;;;3.03;;
4694;SDS011;2361;49.540;8.390;2022-09-29T14:04:59;2.17;;;2.07;;
4694;SDS011;2361;49.540;8.390;2022-09-29T14:12:53;3.20;;;2.73;;
4694;SDS011;2361;49.540;8.390;2022-09-29T14:15:27;3.27;;;2.70;;
4694;SDS011;2361;49.540;8.390;2022-09-29T14:18:03;6.00;;;3.20;;
4694;SDS011;2361;49.540;8.390;2022-09-29T14:20:38;2.57;;;2.37;;
4694;SDS011;2361;49.540;8.390;2022-09-29T14:29:11;5.57;;;3.30;;
4694;SDS011;2361;49.540;8.390;2022-09-29T14:32:02;2.30;;;2.10;;
4694;SDS011;2361;49.540;8.390;2022-09-29T14:34:30;3.50;;;2.83;;
4694;SDS011;2361;49.540;8.390;2022-09-29T14:36:59;3.17;;;2.93;;
4694;SDS011;2361;49.540;8.390;2022-09-29T14:39:26;2.37;;;2.17;;
4694;SDS011;2361;49.540;8.390;2022-09-29T14:41:55;4.47;;;2.90;;
4694;SDS011;2361;49.540;8.390;2022-09-29T14:44:26;4.27;;;2.60;;
4694;SDS011;2361;49.540;8.390;2022-09-29T14:53:42;5.40;;;3.80;;
4694;SDS011;2361;49.540;8.390;2022-09-29T15:04:45;5.00;;;2.90;;
4694;SDS011;2361;49.540;8.390;2022-09-29T15:07:14;6.13;;;3.00;;
4694;SDS011;2361;49.540;8.390;2022-09-29T15:09:49;4.33;;;3.20;;
4694;SDS011;2361;49.540;8.390;2022-09-29T15:12:21;4.87;;;3.10;;
4694;SDS011;2361;49.540;8.390;2022-09-29T15:14:55;2.97;;;2.67;;
4694;SDS011;2361;49.540;8.390;2022-09-29T15:17:33;3.73;;;3.40;;
4694;SDS011;2361;49.540;8.390;2022-09-29T15:20:22;3.43;;;3.00;;
4694;SDS011;2361;49.540;8.390;2022-09-29T15:23:21;5.17;;;3.33;;
4694;SDS011;2361;49.540;8.390;2022-09-29T15:26:39;6.40;;;4.00;;
4694;SDS011;2361;49.540;8.390;2022-09-29T15:29:09;4.53;;;3.50;;
4694;SDS011;2361;49.540;8.390;2022-09-29T15:31:43;3.73;;;3.40;;
4694;SDS011;2361;49.540;8.390;2022-09-29T15:34:16;5.07;;;2.60;;
4694;SDS011;2361;49.540;8.390;2022-09-29T15:36:47;5.30;;;2.47;;
4694;SDS011;2361;49.540;8.390;2022-09-29T15:42:00;4.07;;;3.10;;
4694;SDS011;2361;49.540;8.390;2022-09-29T15:44:31;4.17;;;3.40;;
4694;SDS011;2361;49.540;8.390;2022-09-29T15:46:59;3.63;;;3.20;;
4694;SDS011;2361;49.540;8.390;2022-09-29T15:49:26;5.30;;;4.20;;
4694;SDS011;2361;49.540;8.390;2022-09-29T15:54:27;8.17;;;4.60;;
4694;SDS011;2361;49.540;8.390;2022-09-29T15:57:06;7.20;;;4.60;;
4694;SDS011;2361;49.540;8.390;2022-09-29T16:02:47;6.73;;;4.17;;
4694;SDS011;2361;49.540;8.390;2022-09-29T16:05:38;7.33;;;4.20;;
4694;SDS011;2361;49.540;8.390;2022-09-29T16:08:17;13.97;;;5.77;;
4694;SDS011;2361;49.540;8.390;2022-09-29T16:10:49;10.23;;;4.80;;
4694;SDS011;2361;49.540;8.390;2022-09-29T16:13:28;8.43;;;5.03;;
4694;SDS011;2361;49.540;8.390;2022-09-29T16:15:59;9.80;;;4.60;;
4694;SDS011;2361;49.540;8.390;2022-09-29T16:21:15;8.93;;;4.80;;
4694;SDS011;2361;49.540;8.390;2022-09-29T16:23:48;9.20;;;4.87;;
4694;SDS011;2361;49.540;8.390;2022-09-29T16:26:35;8.47;;;3.90;;
4694;SDS011;2361;49.540;8.390;2022-09-29T16:31:41;11.97;;;8.03;;
4694;SDS011;2361;49.540;8.390;2022-09-29T16:39:22;4.77;;;2.30;;
4694;SDS011;2361;49.540;8.390;2022-09-29T16:41:53;2.37;;;2.17;;
4694;SDS011;2361;49.540;8.390;2022-09-29T16:44:41;3.90;;;2.27;;
4694;SDS011;2361;49.540;8.390;2022-09-29T16:49:36;4.53;;;2.37;;
4694;SDS011;2361;49.540;8.390;2022-09-29T16:52:14;2.90;;;2.57;;
4694;SDS011;2361;49.540;8.390;2022-09-29T17:00:31;6.97;;;2.33;;
4694;SDS011;2361;49.540;8.390;2022-09-29T17:02:58;3.67;;;2.27;;
4694;SDS011;2361;49.540;8.390;2022-09-29T17:05:34;2.93;;;1.93;;
4694;SDS011;2361;49.540;8.390;2022-09-29T17:08:19;1.70;;;1.60;;
4694;SDS011;2361;49.540;8.390;2022-09-29T17:10:49;1.90;;;1.70;;
4694;SDS011;2361;49.540;8.390;2022-09-29T17:13:17;2.43;;;1.73;;
4694;SDS011;2361;49.540;8.390;2022-09-29T17:15:46;3.30;;;1.60;;
4694;SDS011;2361;49.540;8.390;2022-09-29T17:18:16;7.13;;;2.50;;
4694;SDS011;2361;49.540;8.390;2022-09-29T17:20:45;1.70;;;1.50;;
4694;SDS011;2361;49.540;8.390;2022-09-29T17:23:12;2.63;;;2.00;;
4694;SDS011;2361;49.540;8.390;2022-09-29T17:25:40;2.47;;;2.23;;
4694;SDS011;2361;49.540;8.390;2022-09-29T17:28:21;5.17;;;2.30;;
4694;SDS011;2361;49.540;8.390;2022-09-29T17:30:52;3.00;;;2.60;;
4694;SDS011;2361;49.540;8.390;2022-09-29T17:33:20;3.03;;;2.77;;
4694;SDS011;2361;49.540;8.390;2022-09-29T17:35:48;3.97;;;3.37;;
4694;SDS011;2361;49.540;8.390;2022-09-29T17:38:20;2.77;;;2.57;;
4694;SDS011;2361;49.540;8.390;2022-09-29T17:43:27;3.73;;;2.43;;
4694;SDS011;2361;49.540;8.390;2022-09-29T17:45:56;2.83;;;2.60;;
4694;SDS011;2361;49.540;8.390;2022-09-29T17:48:24;3.10;;;2.67;;
4694;SDS011;2361;49.540;8.390;2022-09-29T17:50:55;4.03;;;3.67;;
4694;SDS011;2361;49.540;8.390;2022-09-29T17:53:24;4.63;;;3.00;;
4694;SDS011;2361;49.540;8.390;2022-09-29T17:55:53;3.30;;;3.00;;
4694;SDS011;2361;49.540;8.390;2022-09-29T17:58:22;9.10;;;3.50;;
4694;SDS011;2361;49.540;8.390;2022-09-29T18:00:50;3.47;;;3.17;;
4694;SDS011;2361;49.540;8.390;2022-09-29T18:03:19;7.53;;;2.93;;
4694;SDS011;2361;49.540;8.390;2022-09-29T18:05:47;2.50;;;2.30;;
4694;SDS011;2361;49.540;8.390;2022-09-29T18:08:21;2.47;;;2.27;;
4694;SDS011;2361;49.540;8.390;2022-09-29T18:10:54;2.77;;;2.57;;
4694;SDS011;2361;49.540;8.390;2022-09-29T18:13:24;3.17;;;2.47;;
4694;SDS011;2361;49.540;8.390;2022-09-29T18:15:53;3.10;;;2.67;;
4694;SDS011;2361;49.540;8.390;2022-09-29T18:18:21;3.13;;;2.83;;
4694;SDS011;2361;49.540;8.390;2022-09-29T18:20:49;6.47;;;3.30;;
4694;SDS011;2361;49.540;8.390;2022-09-29T18:23:17;8.83;;;2.87;;
4694;SDS011;2361;49.540;8.390;2022-09-29T18:25:46;4.20;;;3.00;;
4694;SDS011;2361;49.540;8.390;2022-09-29T18:28:15;3.53;;;3.23;;
4694;SDS011;2361;49.540;8.390;2022-09-29T18:30:44;4.13;;;3.47;;
4694;SDS011;2361;49.540;8.390;2022-09-29T18:33:15;3.67;;;3.10;;
4694;SDS011;2361;49.540;8.390;2022-09-29T18:35:44;3.83;;;2.87;;
4694;SDS011;2361;49.540;8.390;2022-09-29T18:38:18;4.10;;;2.90;;
4694;SDS011;2361;49.540;8.390;2022-09-29T18:40:45;2.47;;;2.17;;
4694;SDS011;2361;49.540;8.390;2022-09-29T18:43:12;7.43;;;3.20;;
4694;SDS011;2361;49.540;8.390;2022-09-29T18:45:39;5.93;;;3.50;;
4694;SDS011;2361;49.540;8.390;2022-09-29T18:48:11;4.53;;;2.80;;
4694;SDS011;2361;49.540;8.390;2022-09-29T18:50:41;8.27;;;3.77;;
4694;SDS011;2361;49.540;8.390;2022-09-29T18:53:14;5.27;;;3.90;;
4694;SDS011;2361;49.540;8.390;2022-09-29T18:55:45;8.07;;;5.10;;
4694;SDS011;2361;49.540;8.390;2022-09-29T18:58:15;11.63;;;4.97;;
4694;SDS011;2361;49.540;8.390;2022-09-29T19:00:45;14.17;;;7.97;;
4694;SDS011;2361;49.540;8.390;2022-09-29T19:03:16;7.33;;;4.57;;
4694;SDS011;2361;49.540;8.390;2022-09-29T19:05:44;5.20;;;4.17;;
4694;SDS011;2361;49.540;8.390;2022-09-29T19:08:13;5.23;;;3.40;;
4694;SDS011;2361;49.540;8.390;2022-09-29T19:10:49;4.17;;;3.60;;
4694;SDS011;2361;49.540;8.390;2022-09-29T19:13:19;5.33;;;3.57;;
4694;SDS011;2361;49.540;8.390;2022-09-29T19:15:47;4.60;;;3.50;;
4694;SDS011;2361;49.540;8.390;2022-09-29T19:18:18;5.67;;;3.83;;
4694;SDS011;2361;49.540;8.390;2022-09-29T19:20:57;5.07;;;3.33;;
4694;SDS011;2361;49.540;8.390;2022-09-29T19:23:26;6.00;;;3.20;;
4694;SDS011;2361;49.540;8.390;2022-09-29T19:25:53;3.63;;;3.33;;
4694;SDS011;2361;49.540;8.390;2022-09-29T19:28:23;3.53;;;3.23;;
4694;SDS011;2361;49.540;8.390;2022-09-29T19:30:52;5.60;;;3.50;;
4694;SDS011;2361;49.540;8.390;2022-09-29T19:33:21;4.13;;;3.73;;
4694;SDS011;2361;49.540;8.390;2022-09-29T19:35:49;4.00;;;3.33;;
4694;SDS011;2361;49.540;8.390;2022-09-29T19:38:19;4.33;;;3.60;;
4694;SDS011;2361;49.540;8.390;2022-09-29T19:40:47;4.93;;;3.23;;
4694;SDS011;2361;49.540;8.390;2022-09-29T19:43:16;4.00;;;3.60;;
4694;SDS011;2361;49.540;8.390;2022-09-29T19:45:43;3.73;;;3.43;;